Whites Addition, Illinois
Current Conditions -  °F | °C
As of 5:52 AM on Thursday 27 Nov 2014 (Local Time) from KMLI Reporting Station
Overcast Overcast  
Wind Chill: 17°   Ceiling: 1700
Heat Index: 26°   Visibility: 9mi
Dew Point: 20°   Wind: 9mph
Humidity: 78%   Direction: 290°WNW
Pressure: 30.36"   Gusts: NA
Location:  41.5228°N, 90.3951°W
Report Text: KMLI 271152Z 29008KT 9SM OVC017 M03/M07 A3036 RMK AO2 SLP289 T10331067 11033 21050 51012 $
Loading
Personal Weather Stations






























Interactive Weather Map New forecast layout! Learn more

10-Day Weather Forecast

Advertisements
Track Severe Weather on mobile